Time;durP1;ratioP1;P1;durP2;ratioP2;P2;SDS_P1;SDS_P2;PMS_P1;PMS_P2;Temp;Humidity;BMP_temperature;BMP_pressure;BME280_temperature;BME280_humidity;BME280_pressure;Samples;Min_cycle;Max_cycle;Signal;HPM_P1;HPM_P2
2023/08/21 00:02:12;;;;;;;12.07;3.30;;;;;;;;;;4982325;28;20232;-82
2023/08/21 00:04:38;;;;;;;16.17;4.28;;;;;;;;;;4975744;28;20228;-80
2023/08/21 00:07:06;;;;;;;11.52;3.28;;;;;;;;;;4974313;28;20227;-83
2023/08/21 00:09:33;;;;;;;16.23;4.38;;;;;;;;;;4971993;28;20236;-82
2023/08/21 00:12:00;;;;;;;22.92;6.55;;;;;;;;;;4970730;28;20352;-81
2023/08/21 00:14:26;;;;;;;14.07;3.88;;;;;;;;;;4976632;28;20219;-82
2023/08/21 00:16:53;;;;;;;20.58;5.57;;;;;;;;;;4972072;28;20294;-81
2023/08/21 00:19:20;;;;;;;12.88;3.42;;;;;;;;;;4973409;28;20311;-82
2023/08/21 00:21:46;;;;;;;17.67;5.00;;;;;;;;;;4970967;28;20234;-81
2023/08/21 00:24:13;;;;;;;13.32;3.50;;;;;;;;;;4981763;28;20229;-82
2023/08/21 00:26:40;;;;;;;18.73;4.72;;;;;;;;;;4978904;28;20326;-82
2023/08/21 00:29:06;;;;;;;8.18;2.15;;;;;;;;;;4971798;28;20224;-81
2023/08/21 00:31:33;;;;;;;12.60;3.28;;;;;;;;;;4981177;28;20239;-82
2023/08/21 00:34:00;;;;;;;28.65;7.03;;;;;;;;;;4977657;28;20235;-82
2023/08/21 00:36:26;;;;;;;9.75;2.63;;;;;;;;;;4988158;28;20236;-82
2023/08/21 00:38:53;;;;;;;22.40;5.70;;;;;;;;;;4978177;28;20243;-81
2023/08/21 00:41:20;;;;;;;14.50;4.10;;;;;;;;;;4979644;28;20279;-82
2023/08/21 00:43:46;;;;;;;16.00;4.45;;;;;;;;;;4975854;28;20634;-83
2023/08/21 00:46:13;;;;;;;10.02;2.90;;;;;;;;;;4978390;28;20246;-82
2023/08/21 00:48:40;;;;;;;10.15;3.00;;;;;;;;;;4976958;28;20243;-82
2023/08/21 00:51:07;;;;;;;12.68;4.20;;;;;;;;;;4975085;28;20351;-83
2023/08/21 00:53:34;;;;;;;13.35;4.10;;;;;;;;;;4973995;28;20288;-82
2023/08/21 00:56:01;;;;;;;32.20;5.78;;;;;;;;;;4976778;28;20412;-82
2023/08/21 00:58:28;;;;;;;10.27;4.07;;;;;;;;;;4976463;28;20236;-81
2023/08/21 01:00:54;;;;;;;33.05;7.13;;;;;;;;;;4969022;28;20236;-82
2023/08/21 01:03:21;;;;;;;7.70;2.85;;;;;;;;;;4974980;28;20236;-81
2023/08/21 01:05:48;;;;;;;23.05;6.70;;;;;;;;;;4979156;28;20327;-82
2023/08/21 01:08:35;;;;;;;9.48;3.80;;;;;;;;;;4978414;28;20270;-82
2023/08/21 01:11:11;;;;;;;12.88;4.47;;;;;;;;;;4972696;28;20243;-82
2023/08/21 01:13:53;;;;;;;15.05;4.88;;;;;;;;;;4984854;28;20226;-82
2023/08/21 01:16:21;;;;;;;8.75;3.30;;;;;;;;;;4972622;28;20236;-82
2023/08/21 01:18:48;;;;;;;15.02;4.57;;;;;;;;;;4973568;28;20232;-81
2023/08/21 01:21:15;;;;;;;13.55;4.18;;;;;;;;;;4974679;28;20251;-82
2023/08/21 01:23:43;;;;;;;11.43;3.65;;;;;;;;;;4974318;28;20246;-82
2023/08/21 01:26:10;;;;;;;9.13;3.20;;;;;;;;;;4979634;28;20228;-82
2023/08/21 01:28:37;;;;;;;12.27;3.85;;;;;;;;;;4991588;28;20232;-81
2023/08/21 01:31:21;;;;;;;14.88;4.45;;;;;;;;;;4972749;28;20236;-81
2023/08/21 01:33:50;;;;;;;17.25;5.25;;;;;;;;;;4971924;28;20628;-81
2023/08/21 01:36:17;;;;;;;13.20;3.80;;;;;;;;;;4978739;28;20240;-83
2023/08/21 01:38:44;;;;;;;13.38;3.95;;;;;;;;;;4979517;28;20242;-83
2023/08/21 01:41:11;;;;;;;13.63;3.97;;;;;;;;;;4975674;28;20236;-83
2023/08/21 01:43:37;;;;;;;18.92;4.88;;;;;;;;;;4978928;28;20235;-83
2023/08/21 01:46:04;;;;;;;10.55;2.92;;;;;;;;;;4977521;28;20240;-83
2023/08/21 01:48:30;;;;;;;11.50;3.47;;;;;;;;;;4976035;28;20336;-83
2023/08/21 01:50:57;;;;;;;28.92;7.03;;;;;;;;;;4972936;28;20320;-83
2023/08/21 01:53:23;;;;;;;13.68;3.72;;;;;;;;;;4980078;28;20703;-84
2023/08/21 01:55:50;;;;;;;34.70;7.80;;;;;;;;;;4969613;28;20236;-83
2023/08/21 01:58:17;;;;;;;7.95;2.75;;;;;;;;;;4982430;28;20650;-84
2023/08/21 02:00:45;;;;;;;15.23;4.55;;;;;;;;;;4975538;28;20228;-84
2023/08/21 02:03:12;;;;;;;11.50;3.40;;;;;;;;;;4984067;28;20231;-83
2023/08/21 02:05:39;;;;;;;13.13;3.95;;;;;;;;;;4981865;28;20219;-83
2023/08/21 02:08:07;;;;;;;14.82;4.75;;;;;;;;;;4983535;28;20219;-84
2023/08/21 02:10:33;;;;;;;8.95;2.67;;;;;;;;;;4978797;28;20723;-85
2023/08/21 02:13:00;;;;;;;25.70;6.10;;;;;;;;;;4976102;28;20229;-84
2023/08/21 02:15:26;;;;;;;14.32;3.97;;;;;;;;;;4981326;28;20235;-85
2023/08/21 02:17:54;;;;;;;19.92;5.50;;;;;;;;;;4973724;28;20233;-83
2023/08/21 02:20:20;;;;;;;8.68;2.70;;;;;;;;;;4981668;28;20227;-83
2023/08/21 02:22:47;;;;;;;18.02;4.97;;;;;;;;;;4970801;28;20232;-84
2023/08/21 02:25:14;;;;;;;8.55;2.63;;;;;;;;;;4984115;28;20227;-83
2023/08/21 02:27:40;;;;;;;11.07;3.08;;;;;;;;;;4984333;28;20238;-83
2023/08/21 02:30:07;;;;;;;17.02;4.88;;;;;;;;;;4977121;28;20278;-83
2023/08/21 02:32:34;;;;;;;14.80;4.53;;;;;;;;;;4981479;28;20236;-83
2023/08/21 02:35:01;;;;;;;24.98;6.05;;;;;;;;;;4979455;28;20241;-83
2023/08/21 02:37:28;;;;;;;11.02;3.67;;;;;;;;;;4980191;28;20231;-84
2023/08/21 02:39:55;;;;;;;44.00;8.73;;;;;;;;;;4972144;28;20231;-83
2023/08/21 02:42:21;;;;;;;10.77;3.28;;;;;;;;;;4977054;28;20240;-83
2023/08/21 02:44:48;;;;;;;31.67;6.78;;;;;;;;;;4970517;28;20230;-84
2023/08/21 02:47:14;;;;;;;8.75;2.92;;;;;;;;;;4981064;28;20223;-84
2023/08/21 02:49:41;;;;;;;10.82;3.75;;;;;;;;;;4977455;28;20232;-85
2023/08/21 02:52:08;;;;;;;9.02;2.80;;;;;;;;;;4975454;28;20236;-83
2023/08/21 02:54:34;;;;;;;11.93;3.95;;;;;;;;;;4974571;28;20324;-84
2023/08/21 02:57:01;;;;;;;30.45;6.88;;;;;;;;;;4973401;28;21306;-83
2023/08/21 02:59:27;;;;;;;13.05;4.22;;;;;;;;;;4977719;28;20234;-85
2023/08/21 03:01:54;;;;;;;49.17;9.63;;;;;;;;;;4974100;28;20247;-84
2023/08/21 03:04:21;;;;;;;7.55;2.65;;;;;;;;;;4983375;28;20224;-84
2023/08/21 03:06:47;;;;;;;36.28;7.88;;;;;;;;;;4979259;28;20228;-85
2023/08/21 03:09:14;;;;;;;10.55;3.08;;;;;;;;;;4978020;28;20231;-83
2023/08/21 03:11:40;;;;;;;13.90;4.40;;;;;;;;;;4977531;28;20233;-84
2023/08/21 03:14:07;;;;;;;12.88;4.03;;;;;;;;;;4976377;28;20235;-83
2023/08/21 03:16:34;;;;;;;14.13;4.28;;;;;;;;;;4980049;28;20638;-84
2023/08/21 03:19:00;;;;;;;16.73;4.95;;;;;;;;;;4969478;28;20229;-84
2023/08/21 03:21:27;;;;;;;13.60;4.70;;;;;;;;;;5003272;28;20231;-83
2023/08/21 03:23:55;;;;;;;13.80;4.35;;;;;;;;;;4975657;28;20231;-83
2023/08/21 03:26:22;;;;;;;8.10;2.67;;;;;;;;;;4979934;28;20703;-83
2023/08/21 03:28:48;;;;;;;17.15;5.43;;;;;;;;;;4962100;28;20579;-84
2023/08/21 03:31:15;;;;;;;9.52;2.80;;;;;;;;;;5006218;28;20238;-84
2023/08/21 03:33:42;;;;;;;12.27;3.67;;;;;;;;;;4976834;28;20239;-84
2023/08/21 03:36:08;;;;;;;9.45;3.47;;;;;;;;;;4973404;28;20247;-83
2023/08/21 03:38:35;;;;;;;15.27;4.18;;;;;;;;;;4980665;28;20219;-83
2023/08/21 03:41:01;;;;;;;15.18;5.03;;;;;;;;;;4979845;28;20774;-83
2023/08/21 03:43:28;;;;;;;11.20;3.83;;;;;;;;;;4979947;28;20683;-84
2023/08/21 03:45:55;;;;;;;16.00;4.93;;;;;;;;;;4974204;28;20236;-85
2023/08/21 03:48:22;;;;;;;10.45;3.20;;;;;;;;;;4984318;28;20227;-85
2023/08/21 03:50:49;;;;;;;18.30;5.43;;;;;;;;;;4978800;28;20240;-85
2023/08/21 03:53:15;;;;;;;12.07;4.00;;;;;;;;;;4979736;28;20258;-83
2023/08/21 03:55:42;;;;;;;13.05;4.00;;;;;;;;;;4980240;28;20235;-83
2023/08/21 03:58:08;;;;;;;6.60;2.10;;;;;;;;;;4974464;28;20240;-84
2023/08/21 04:00:35;;;;;;;15.23;4.68;;;;;;;;;;4981955;28;20239;-83
2023/08/21 04:03:02;;;;;;;18.10;4.85;;;;;;;;;;4977727;28;20250;-85
2023/08/21 04:05:28;;;;;;;8.75;2.72;;;;;;;;;;4983045;28;20311;-83
2023/08/21 04:07:55;;;;;;;46.20;8.73;;;;;;;;;;4944421;28;20254;-83
2023/08/21 04:10:22;;;;;;;7.80;2.63;;;;;;;;;;4991576;28;20241;-84
2023/08/21 04:12:48;;;;;;;34.97;8.00;;;;;;;;;;4986723;28;20234;-84
2023/08/21 04:15:15;;;;;;;11.18;3.78;;;;;;;;;;4984902;28;20228;-85
2023/08/21 04:17:41;;;;;;;10.10;3.50;;;;;;;;;;4978913;28;20229;-84
2023/08/21 04:20:08;;;;;;;12.07;4.20;;;;;;;;;;4978166;28;20669;-84
2023/08/21 04:22:35;;;;;;;14.50;5.22;;;;;;;;;;4984968;28;20227;-85
2023/08/21 04:25:03;;;;;;;29.20;6.80;;;;;;;;;;4975938;28;20233;-84
2023/08/21 04:27:29;;;;;;;11.45;3.97;;;;;;;;;;4984328;28;20232;-85
2023/08/21 04:29:56;;;;;;;48.95;10.38;;;;;;;;;;4974344;28;20228;-87
2023/08/21 04:32:23;;;;;;;9.50;3.25;;;;;;;;;;4986513;28;20280;-85
2023/08/21 04:34:49;;;;;;;48.17;9.43;;;;;;;;;;4977099;28;20228;-88
2023/08/21 04:37:16;;;;;;;10.15;3.85;;;;;;;;;;4982682;28;20228;-86
2023/08/21 04:39:42;;;;;;;9.60;3.38;;;;;;;;;;4975326;28;20228;-85
2023/08/21 04:42:09;;;;;;;17.10;5.25;;;;;;;;;;4981068;28;20228;-85
2023/08/21 04:44:36;;;;;;;9.88;3.28;;;;;;;;;;4980209;28;20232;-88
2023/08/21 04:47:21;;;;;;;33.67;6.70;;;;;;;;;;4976489;28;20243;-87
2023/08/21 04:49:51;;;;;;;20.48;5.32;;;;;;;;;;4978722;28;20711;-83
2023/08/21 04:52:21;;;;;;;13.18;3.88;;;;;;;;;;4983880;28;20240;-84
2023/08/21 04:54:48;;;;;;;30.27;7.32;;;;;;;;;;4985519;28;20223;-85
2023/08/21 04:57:15;;;;;;;7.78;2.78;;;;;;;;;;4982528;28;20319;-84
2023/08/21 04:59:43;;;;;;;12.27;4.57;;;;;;;;;;4975738;28;20306;-85
2023/08/21 05:02:09;;;;;;;12.48;4.18;;;;;;;;;;4976791;28;20235;-87
2023/08/21 05:04:36;;;;;;;10.63;3.33;;;;;;;;;;4972580;28;20246;-84
2023/08/21 05:07:04;;;;;;;37.95;7.15;;;;;;;;;;4977862;28;20825;-85
2023/08/21 05:09:31;;;;;;;10.50;3.55;;;;;;;;;;4986783;28;20655;-87
2023/08/21 05:11:57;;;;;;;52.42;10.13;;;;;;;;;;4967823;28;20232;-87
2023/08/21 05:14:24;;;;;;;8.07;2.92;;;;;;;;;;4980337;28;20711;-86
2023/08/21 05:16:51;;;;;;;46.75;9.15;;;;;;;;;;4972736;28;20232;-87
2023/08/21 05:19:18;;;;;;;8.30;3.03;;;;;;;;;;4983789;28;20228;-86
2023/08/21 05:21:45;;;;;;;24.20;6.57;;;;;;;;;;4973298;28;20243;-93
2023/08/21 05:24:12;;;;;;;9.52;3.25;;;;;;;;;;5010708;28;20228;-87
2023/08/21 05:26:39;;;;;;;12.93;3.95;;;;;;;;;;4977397;28;20224;-88
2023/08/21 05:29:05;;;;;;;12.77;4.55;;;;;;;;;;4980376;28;20243;-87
2023/08/21 05:31:33;;;;;;;14.50;4.40;;;;;;;;;;4974337;28;20235;-86
2023/08/21 05:33:59;;;;;;;48.63;8.63;;;;;;;;;;4980863;28;20225;-86
2023/08/21 05:36:26;;;;;;;10.52;3.35;;;;;;;;;;4985040;28;20253;-92
2023/08/21 05:38:53;;;;;;;50.42;9.80;;;;;;;;;;4976427;28;20311;-86
2023/08/21 05:41:33;;;;;;;11.35;3.55;;;;;;;;;;4971231;28;20227;-86
2023/08/21 05:44:00;;;;;;;41.85;7.47;;;;;;;;;;4975131;28;20224;-87
2023/08/21 05:46:27;;;;;;;12.30;4.03;;;;;;;;;;4976901;28;20584;-87
2023/08/21 05:48:54;;;;;;;56.15;10.90;;;;;;;;;;4975086;28;20223;-86
2023/08/21 05:51:20;;;;;;;11.90;3.78;;;;;;;;;;4975036;28;20238;-85
2023/08/21 05:53:47;;;;;;;44.40;8.18;;;;;;;;;;4973495;28;20247;-81
2023/08/21 05:56:15;;;;;;;13.52;4.28;;;;;;;;;;4983438;28;20290;-81
2023/08/21 05:58:42;;;;;;;13.90;4.07;;;;;;;;;;4984366;28;20238;-81
2023/08/21 06:01:08;;;;;;;12.23;3.88;;;;;;;;;;4983891;28;20236;-82
2023/08/21 06:03:35;;;;;;;17.95;5.13;;;;;;;;;;4980684;28;20719;-81
2023/08/21 06:06:02;;;;;;;28.85;6.18;;;;;;;;;;4983042;28;20235;-81
2023/08/21 06:08:28;;;;;;;14.30;4.65;;;;;;;;;;4976737;28;20229;-81
2023/08/21 06:10:55;;;;;;;39.45;9.18;;;;;;;;;;4972751;28;20263;-81
2023/08/21 06:13:22;;;;;;;15.18;4.07;;;;;;;;;;4984962;28;20228;-82
2023/08/21 06:15:48;;;;;;;30.45;7.25;;;;;;;;;;4976759;28;20220;-82
2023/08/21 06:18:15;;;;;;;11.65;3.22;;;;;;;;;;4975339;28;20240;-82
2023/08/21 06:20:43;;;;;;;12.57;3.05;;;;;;;;;;4978033;28;20250;-81
2023/08/21 06:23:10;;;;;;;13.48;4.95;;;;;;;;;;4974058;28;20319;-81
2023/08/21 06:25:37;;;;;;;13.82;4.10;;;;;;;;;;4926091;28;20239;-80
2023/08/21 06:28:04;;;;;;;10.20;2.92;;;;;;;;;;4978268;28;20244;-81
2023/08/21 06:30:31;;;;;;;19.17;4.53;;;;;;;;;;4978562;28;20224;-79
2023/08/21 06:32:57;;;;;;;19.17;5.32;;;;;;;;;;4898904;28;20224;-81
2023/08/21 06:35:24;;;;;;;11.65;3.42;;;;;;;;;;4982660;28;20231;-80
2023/08/21 06:37:51;;;;;;;21.15;5.60;;;;;;;;;;4983720;28;20227;-80
2023/08/21 06:40:17;;;;;;;14.18;3.42;;;;;;;;;;4987178;28;20239;-80
2023/08/21 06:42:44;;;;;;;15.57;4.22;;;;;;;;;;4979403;28;20231;-80
2023/08/21 06:45:10;;;;;;;13.70;3.55;;;;;;;;;;4978738;28;20235;-80
2023/08/21 06:47:37;;;;;;;28.15;6.45;;;;;;;;;;4977133;28;20261;-81
2023/08/21 06:50:04;;;;;;;30.13;7.03;;;;;;;;;;4968488;28;20351;-80
2023/08/21 06:52:30;;;;;;;16.92;4.10;;;;;;;;;;4979416;28;20232;-78
2023/08/21 06:54:57;;;;;;;30.15;7.57;;;;;;;;;;4979623;28;20238;-78
2023/08/21 06:57:23;;;;;;;15.30;4.63;;;;;;;;;;4980439;28;20240;-78
2023/08/21 06:59:50;;;;;;;23.20;6.10;;;;;;;;;;4977672;28;20230;-80
2023/08/21 07:02:16;;;;;;;12.15;3.45;;;;;;;;;;4981438;28;20223;-80
2023/08/21 07:04:43;;;;;;;14.50;4.22;;;;;;;;;;4980452;28;20658;-80
2023/08/21 07:07:10;;;;;;;9.45;2.75;;;;;;;;;;4968717;28;20236;-79
2023/08/21 07:09:36;;;;;;;16.20;4.60;;;;;;;;;;4981042;28;20250;-80
2023/08/21 07:12:03;;;;;;;19.25;5.47;;;;;;;;;;4977222;28;20251;-79
2023/08/21 07:14:31;;;;;;;21.95;4.82;;;;;;;;;;4972697;28;20240;-81
2023/08/21 07:16:58;;;;;;;49.35;8.00;;;;;;;;;;4988022;28;20294;-80
2023/08/21 07:19:25;;;;;;;18.92;5.70;;;;;;;;;;4983179;28;20393;-78
2023/08/21 07:21:52;;;;;;;22.27;5.50;;;;;;;;;;4974188;28;20263;-79
2023/08/21 07:24:18;;;;;;;9.23;3.05;;;;;;;;;;4979996;28;20335;-79
2023/08/21 07:26:46;;;;;;;12.70;4.07;;;;;;;;;;4974675;28;20231;-79
2023/08/21 07:29:12;;;;;;;12.30;4.00;;;;;;;;;;4979595;28;20254;-79
2023/08/21 07:31:39;;;;;;;13.63;4.32;;;;;;;;;;4987122;28;20322;-80
2023/08/21 07:34:06;;;;;;;13.52;3.53;;;;;;;;;;4974070;28;20272;-79
2023/08/21 07:36:33;;;;;;;16.35;4.35;;;;;;;;;;4992657;28;20228;-80
2023/08/21 07:38:59;;;;;;;29.88;7.82;;;;;;;;;;4975317;28;20334;-78
2023/08/21 07:41:26;;;;;;;16.35;4.50;;;;;;;;;;4986563;28;20243;-79
2023/08/21 07:43:53;;;;;;;29.50;7.15;;;;;;;;;;4982324;28;20236;-79
2023/08/21 07:46:19;;;;;;;18.45;4.45;;;;;;;;;;4991709;28;20275;-80
2023/08/21 07:48:46;;;;;;;25.60;6.03;;;;;;;;;;4983309;28;20295;-79
2023/08/21 07:51:13;;;;;;;14.05;3.58;;;;;;;;;;4981552;28;20239;-80
2023/08/21 07:53:40;;;;;;;24.55;5.55;;;;;;;;;;4982864;28;20283;-79
2023/08/21 07:56:06;;;;;;;15.10;3.42;;;;;;;;;;4985674;28;20239;-81
2023/08/21 07:58:33;;;;;;;24.05;5.15;;;;;;;;;;4979439;28;20236;-82
2023/08/21 08:01:01;;;;;;;21.30;5.80;;;;;;;;;;4983696;28;20246;-80
2023/08/21 08:03:28;;;;;;;11.63;2.83;;;;;;;;;;4988327;28;20265;-79
2023/08/21 08:05:55;;;;;;;25.52;6.80;;;;;;;;;;4983797;28;20235;-80
2023/08/21 08:08:21;;;;;;;13.43;3.03;;;;;;;;;;4989320;28;20239;-80
2023/08/21 08:10:48;;;;;;;15.85;3.95;;;;;;;;;;4985480;28;20242;-80
2023/08/21 08:13:14;;;;;;;21.50;4.72;;;;;;;;;;4982295;28;20231;-80
2023/08/21 08:15:41;;;;;;;20.50;4.72;;;;;;;;;;4980104;28;20271;-79
2023/08/21 08:18:12;;;;;;;14.07;3.15;;;;;;;;;;4984645;28;20245;-80
2023/08/21 08:20:38;;;;;;;16.08;4.20;;;;;;;;;;4996991;28;20242;-80
2023/08/21 08:23:05;;;;;;;11.77;2.90;;;;;;;;;;4982023;28;20246;-80
2023/08/21 08:25:33;;;;;;;18.83;4.20;;;;;;;;;;5007208;28;20267;-79
2023/08/21 08:27:59;;;;;;;24.10;5.57;;;;;;;;;;4981819;28;20227;-80
2023/08/21 08:30:26;;;;;;;20.65;4.45;;;;;;;;;;4975689;28;20238;-79
2023/08/21 08:32:53;;;;;;;26.15;6.45;;;;;;;;;;4981018;28;20334;-79
2023/08/21 08:35:19;;;;;;;16.38;3.65;;;;;;;;;;4988881;28;20239;-80
2023/08/21 08:37:46;;;;;;;21.50;5.25;;;;;;;;;;5000757;28;20305;-79
2023/08/21 08:40:13;;;;;;;10.88;2.78;;;;;;;;;;4996422;28;20234;-79
2023/08/21 08:42:39;;;;;;;13.95;4.03;;;;;;;;;;4991897;28;20236;-79
2023/08/21 08:45:06;;;;;;;12.43;2.95;;;;;;;;;;4997688;28;20242;-79
2023/08/21 08:47:34;;;;;;;17.63;4.30;;;;;;;;;;4998945;28;20223;-80
2023/08/21 08:50:05;;;;;;;19.38;5.03;;;;;;;;;;4992823;28;20247;-79
2023/08/21 08:52:35;;;;;;;12.48;3.22;;;;;;;;;;4998611;28;20227;-80
2023/08/21 08:55:06;;;;;;;19.92;5.03;;;;;;;;;;4995357;28;20246;-79
2023/08/21 08:57:34;;;;;;;16.08;3.92;;;;;;;;;;4999730;28;20263;-80
2023/08/21 09:00:01;;;;;;;26.83;7.53;;;;;;;;;;4987601;28;20314;-79
2023/08/21 09:02:28;;;;;;;10.38;2.72;;;;;;;;;;4995428;28;20231;-79
2023/08/21 09:04:54;;;;;;;16.27;4.65;;;;;;;;;;4986333;28;20364;-80
2023/08/21 09:07:21;;;;;;;11.30;3.10;;;;;;;;;;5006674;28;20230;-80
2023/08/21 09:09:52;;;;;;;20.00;6.05;;;;;;;;;;4983381;28;20236;-80
2023/08/21 09:12:20;;;;;;;13.60;3.30;;;;;;;;;;4998561;28;20258;-80
2023/08/21 09:14:47;;;;;;;19.13;4.88;;;;;;;;;;4992558;28;20228;-80
2023/08/21 09:17:14;;;;;;;13.60;3.25;;;;;;;;;;4995720;28;20231;-80
2023/08/21 09:19:40;;;;;;;37.75;8.77;;;;;;;;;;4990686;28;20232;-80
2023/08/21 09:22:10;;;;;;;15.77;4.15;;;;;;;;;;4984323;28;20235;-80
2023/08/21 09:24:37;;;;;;;34.30;9.27;;;;;;;;;;4996999;28;20240;-80
2023/08/21 09:27:05;;;;;;;19.98;5.10;;;;;;;;;;4982115;28;20298;-80
2023/08/21 09:29:41;;;;;;;13.18;3.67;;;;;;;;;;4988097;28;20231;-79
2023/08/21 09:32:08;;;;;;;7.38;2.30;;;;;;;;;;4978612;28;20618;-80
2023/08/21 09:34:36;;;;;;;11.93;3.63;;;;;;;;;;4989459;28;20777;-80
2023/08/21 09:37:05;;;;;;;16.38;4.60;;;;;;;;;;4962784;28;20236;-79
2023/08/21 09:39:35;;;;;;;16.00;3.65;;;;;;;;;;4980705;28;20243;-79
2023/08/21 09:42:06;;;;;;;18.98;4.90;;;;;;;;;;4997169;28;20252;-80
2023/08/21 09:44:39;;;;;;;13.73;3.85;;;;;;;;;;4988821;28;20262;-79
2023/08/21 09:47:11;;;;;;;14.00;3.75;;;;;;;;;;4987787;28;20246;-80
2023/08/21 09:49:39;;;;;;;14.80;3.60;;;;;;;;;;5001915;28;20251;-79
2023/08/21 09:52:06;;;;;;;9.95;2.85;;;;;;;;;;4986357;28;20255;-80
2023/08/21 09:54:33;;;;;;;13.20;4.05;;;;;;;;;;4986686;28;20258;-79
2023/08/21 09:57:01;;;;;;;20.85;5.95;;;;;;;;;;4972743;28;20236;-80
2023/08/21 09:59:28;;;;;;;17.98;4.82;;;;;;;;;;4980429;28;20275;-79
2023/08/21 10:01:58;;;;;;;66.57;13.63;;;;;;;;;;4977926;28;20243;-80
2023/08/21 10:04:25;;;;;;;12.75;3.58;;;;;;;;;;4987268;28;20224;-79
2023/08/21 10:06:53;;;;;;;21.60;5.20;;;;;;;;;;4975735;28;20231;-80
2023/08/21 10:09:21;;;;;;;20.00;4.25;;;;;;;;;;4989269;28;20228;-80
2023/08/21 10:11:48;;;;;;;32.17;7.22;;;;;;;;;;4987070;28;20235;-79
2023/08/21 10:14:15;;;;;;;18.80;3.90;;;;;;;;;;4993040;28;20234;-80
2023/08/21 10:16:42;;;;;;;10.23;3.63;;;;;;;;;;4987347;28;20228;-80
2023/08/21 10:19:14;;;;;;;7.57;2.70;;;;;;;;;;4990664;28;20303;-80
2023/08/21 10:21:40;;;;;;;8.88;3.00;;;;;;;;;;4987755;28;20242;-79
2023/08/21 10:24:07;;;;;;;4.45;2.58;;;;;;;;;;4985786;28;20231;-79
2023/08/21 10:26:38;;;;;;;8.90;3.28;;;;;;;;;;4986541;28;20244;-80
2023/08/21 10:29:07;;;;;;;4.63;2.55;;;;;;;;;;4971871;28;20741;-80
2023/08/21 10:31:34;;;;;;;4.45;2.28;;;;;;;;;;4987409;28;20238;-79
2023/08/21 10:34:05;;;;;;;7.32;2.97;;;;;;;;;;4992259;28;20952;-80
2023/08/21 10:36:44;;;;;;;5.25;2.15;;;;;;;;;;4991201;28;20239;-79
2023/08/21 10:39:14;;;;;;;4.80;1.77;;;;;;;;;;4988497;28;20327;-80
2023/08/21 10:41:41;;;;;;;10.65;3.70;;;;;;;;;;4986202;28;20237;-80
2023/08/21 10:44:08;;;;;;;13.15;3.38;;;;;;;;;;4987039;28;20243;-79
2023/08/21 10:46:50;;;;;;;17.98;4.10;;;;;;;;;;4988970;28;20219;-79
2023/08/21 10:49:17;;;;;;;16.52;3.58;;;;;;;;;;4975060;28;20231;-79
2023/08/21 10:51:43;;;;;;;15.27;3.38;;;;;;;;;;4975619;28;20232;-79
2023/08/21 10:54:10;;;;;;;18.60;4.10;;;;;;;;;;4982841;28;20315;-79
2023/08/21 10:56:37;;;;;;;13.75;3.17;;;;;;;;;;4992484;28;20227;-80
2023/08/21 10:59:04;;;;;;;13.90;4.13;;;;;;;;;;4978535;28;20301;-80
2023/08/21 11:01:44;;;;;;;11.13;3.25;;;;;;;;;;4980479;28;20239;-79
2023/08/21 11:04:11;;;;;;;11.02;3.20;;;;;;;;;;4972059;28;20319;-79
2023/08/21 11:06:39;;;;;;;14.77;3.83;;;;;;;;;;4972442;28;20779;-80
2023/08/21 11:09:12;;;;;;;19.90;4.97;;;;;;;;;;4974927;28;20243;-80
2023/08/21 11:11:38;;;;;;;16.55;3.83;;;;;;;;;;4988433;28;20647;-80
2023/08/21 11:14:05;;;;;;;14.35;3.67;;;;;;;;;;4985952;28;20227;-80
2023/08/21 11:16:31;;;;;;;17.30;4.57;;;;;;;;;;4983129;28;20239;-80
2023/08/21 11:19:02;;;;;;;16.58;4.32;;;;;;;;;;4988747;28;20707;-80
2023/08/21 11:21:29;;;;;;;14.52;3.38;;;;;;;;;;4996866;28;20226;-80
2023/08/21 11:23:56;;;;;;;16.95;4.47;;;;;;;;;;4976312;28;20714;-79
2023/08/21 11:26:24;;;;;;;15.77;3.22;;;;;;;;;;4978720;28;20252;-79
2023/08/21 11:28:51;;;;;;;12.43;3.75;;;;;;;;;;4995094;28;20226;-79
2023/08/21 11:31:18;;;;;;;12.30;3.00;;;;;;;;;;4986370;28;20231;-79
2023/08/21 11:33:51;;;;;;;16.00;3.83;;;;;;;;;;4979284;28;20272;-80
2023/08/21 11:36:18;;;;;;;11.48;2.85;;;;;;;;;;4969118;28;20322;-81
2023/08/21 11:38:57;;;;;;;14.73;3.65;;;;;;;;;;4969470;28;20228;-80
2023/08/21 11:41:24;;;;;;;11.82;2.95;;;;;;;;;;4981089;28;20235;-79
2023/08/21 11:43:51;;;;;;;14.20;4.10;;;;;;;;;;4964449;28;20251;-79
2023/08/21 11:46:18;;;;;;;10.55;2.90;;;;;;;;;;4986348;28;20228;-79
2023/08/21 11:48:45;;;;;;;15.70;3.92;;;;;;;;;;4975256;28;20228;-79
2023/08/21 11:51:11;;;;;;;14.93;3.63;;;;;;;;;;4978861;28;20228;-79
2023/08/21 11:53:40;;;;;;;17.67;4.88;;;;;;;;;;4979037;28;20240;-79
2023/08/21 11:56:11;;;;;;;13.13;3.08;;;;;;;;;;5001664;28;20319;-79
2023/08/21 11:58:39;;;;;;;16.73;3.72;;;;;;;;;;4985875;28;20228;-79
2023/08/21 12:01:07;;;;;;;13.13;3.15;;;;;;;;;;4966941;28;20247;-79
2023/08/21 12:03:37;;;;;;;11.00;2.67;;;;;;;;;;4984815;28;20235;-80
2023/08/21 12:06:08;;;;;;;10.40;3.03;;;;;;;;;;4967472;28;20231;-79
2023/08/21 12:08:35;;;;;;;10.48;2.78;;;;;;;;;;4983266;28;20229;-79
2023/08/21 12:11:02;;;;;;;9.93;3.08;;;;;;;;;;4977464;28;20259;-79
2023/08/21 12:13:29;;;;;;;12.90;3.47;;;;;;;;;;4984865;28;20280;-79
2023/08/21 12:15:59;;;;;;;29.50;7.60;;;;;;;;;;4932521;28;20224;-80
2023/08/21 12:18:26;;;;;;;11.20;3.03;;;;;;;;;;4980208;28;20228;-80
2023/08/21 12:20:52;;;;;;;18.80;5.72;;;;;;;;;;4981593;28;20239;-80
2023/08/21 12:23:19;;;;;;;10.43;2.75;;;;;;;;;;4983956;28;20227;-80
2023/08/21 12:25:46;;;;;;;12.52;3.55;;;;;;;;;;4981811;28;20227;-79
2023/08/21 12:28:13;;;;;;;9.40;2.83;;;;;;;;;;4986605;28;20227;-79
2023/08/21 12:30:39;;;;;;;10.73;3.53;;;;;;;;;;4983958;28;20231;-80
2023/08/21 12:33:06;;;;;;;5.53;2.28;;;;;;;;;;4979895;28;20235;-79
2023/08/21 12:35:47;;;;;;;8.55;3.50;;;;;;;;;;4979983;28;20242;-79
2023/08/21 12:38:14;;;;;;;10.00;2.92;;;;;;;;;;4991075;28;20231;-80
2023/08/21 12:40:40;;;;;;;6.53;2.53;;;;;;;;;;4988585;28;20305;-79
2023/08/21 12:43:07;;;;;;;9.70;2.78;;;;;;;;;;4969614;28;20231;-80
2023/08/21 12:45:35;;;;;;;6.90;2.70;;;;;;;;;;4982474;28;20239;-80
2023/08/21 12:48:03;;;;;;;21.83;5.28;;;;;;;;;;4969291;28;20234;-80
2023/08/21 12:50:30;;;;;;;21.17;5.20;;;;;;;;;;4970750;28;20223;-81
2023/08/21 12:52:57;;;;;;;44.85;9.48;;;;;;;;;;4985686;28;20228;-80
2023/08/21 12:55:24;;;;;;;4.53;2.00;;;;;;;;;;4985736;28;20251;-80
2023/08/21 12:57:50;;;;;;;39.83;8.20;;;;;;;;;;4979621;28;20228;-80
2023/08/21 13:00:17;;;;;;;7.15;2.67;;;;;;;;;;4982242;28;20245;-80
2023/08/21 13:02:44;;;;;;;6.75;2.80;;;;;;;;;;4979917;28;20231;-80
2023/08/21 13:05:10;;;;;;;5.93;2.60;;;;;;;;;;4987149;28;20231;-80
2023/08/21 13:07:37;;;;;;;6.53;2.97;;;;;;;;;;4985526;28;20247;-80
2023/08/21 13:10:04;;;;;;;7.72;3.22;;;;;;;;;;4979498;28;20240;-80
2023/08/21 13:12:30;;;;;;;5.32;2.30;;;;;;;;;;4975940;28;20232;-80
2023/08/21 13:14:58;;;;;;;5.78;2.42;;;;;;;;;;4982249;28;20226;-80
2023/08/21 13:17:25;;;;;;;7.22;2.85;;;;;;;;;;4973788;28;20236;-79
2023/08/21 13:19:51;;;;;;;18.80;5.40;;;;;;;;;;4987034;28;20234;-80
2023/08/21 13:22:18;;;;;;;12.02;3.45;;;;;;;;;;4993904;28;20231;-80
2023/08/21 13:24:45;;;;;;;9.20;2.97;;;;;;;;;;4979067;28;20638;-79
2023/08/21 13:27:11;;;;;;;12.27;3.92;;;;;;;;;;4953056;28;20227;-80
2023/08/21 13:29:38;;;;;;;13.65;4.28;;;;;;;;;;4989163;28;20232;-82
2023/08/21 13:32:04;;;;;;;10.07;3.30;;;;;;;;;;4974990;28;20239;-81
2023/08/21 13:34:31;;;;;;;14.60;4.07;;;;;;;;;;4974644;28;20329;-80
2023/08/21 13:36:57;;;;;;;22.48;5.93;;;;;;;;;;4971081;28;20235;-80
2023/08/21 13:39:26;;;;;;;5.68;2.15;;;;;;;;;;4986955;28;20232;-80
2023/08/21 13:41:52;;;;;;;12.02;4.32;;;;;;;;;;4981892;28;20266;-80
2023/08/21 13:44:19;;;;;;;5.57;2.38;;;;;;;;;;4991047;28;20236;-80
2023/08/21 13:46:46;;;;;;;10.20;3.47;;;;;;;;;;4990257;28;20308;-80
2023/08/21 13:49:12;;;;;;;9.02;2.92;;;;;;;;;;4987993;28;20958;-80
2023/08/21 13:51:39;;;;;;;8.98;2.70;;;;;;;;;;4994203;28;20258;-80
2023/08/21 13:54:06;;;;;;;7.97;2.53;;;;;;;;;;4986802;28;20331;-80
2023/08/21 13:56:32;;;;;;;8.02;2.53;;;;;;;;;;4995529;28;20270;-79
2023/08/21 13:58:59;;;;;;;19.55;5.10;;;;;;;;;;4988802;28;20227;-80
2023/08/21 14:01:25;;;;;;;17.73;3.63;;;;;;;;;;4984436;28;20317;-80
2023/08/21 14:03:52;;;;;;;18.65;4.90;;;;;;;;;;4981297;28;20247;-80
2023/08/21 14:06:19;;;;;;;10.80;3.17;;;;;;;;;;4981624;28;20238;-81
2023/08/21 14:08:46;;;;;;;16.38;4.35;;;;;;;;;;4980129;28;20228;-81
2023/08/21 14:11:13;;;;;;;10.48;3.47;;;;;;;;;;4980559;28;20239;-80
2023/08/21 14:13:39;;;;;;;13.20;3.45;;;;;;;;;;4982706;28;20227;-80
2023/08/21 14:16:06;;;;;;;12.63;3.58;;;;;;;;;;4979540;28;20239;-80
2023/08/21 14:18:32;;;;;;;10.30;2.45;;;;;;;;;;4985703;28;20254;-80
2023/08/21 14:20:59;;;;;;;23.30;6.05;;;;;;;;;;4974239;28;20240;-80
2023/08/21 14:23:26;;;;;;;13.45;4.05;;;;;;;;;;4978651;28;20240;-80
2023/08/21 14:25:53;;;;;;;15.13;4.35;;;;;;;;;;4977698;28;20243;-79
2023/08/21 14:28:19;;;;;;;15.52;4.43;;;;;;;;;;4982409;28;20228;-80
2023/08/21 14:30:47;;;;;;;18.05;4.60;;;;;;;;;;4986937;28;20231;-80
2023/08/21 14:33:13;;;;;;;16.20;4.25;;;;;;;;;;4989985;28;20227;-80